createdAt,value
2022-09-15T00:01:55.538Z,1.30
2022-09-15T00:04:56.946Z,1.50
2022-09-15T00:07:58.295Z,1.85
2022-09-15T00:11:08.126Z,1.73
2022-09-15T00:14:09.495Z,1.20
2022-09-15T00:17:10.956Z,1.50
2022-09-15T00:20:12.355Z,1.55
2022-09-15T00:23:15.439Z,1.60
2022-09-15T00:26:20.347Z,1.60
2022-09-15T00:29:21.703Z,1.55
2022-09-15T00:32:23.055Z,2.22
2022-09-15T00:35:24.548Z,1.67
2022-09-15T00:38:25.928Z,1.73
2022-09-15T00:41:27.295Z,1.85
2022-09-15T00:44:51.361Z,1.85
2022-09-15T00:47:52.720Z,1.58
2022-09-15T00:50:56.743Z,1.83
2022-09-15T00:54:00.516Z,2.22
2022-09-15T00:57:06.812Z,1.73
2022-09-15T01:00:15.196Z,2.15
2022-09-15T01:03:16.641Z,1.98
2022-09-15T01:06:26.888Z,1.83
2022-09-15T01:09:35.677Z,1.67
2022-09-15T01:12:37.253Z,1.80
2022-09-15T01:15:50.499Z,2.25
2022-09-15T01:19:32.034Z,1.98
2022-09-15T01:22:36.438Z,2.08
2022-09-15T01:26:06.126Z,2.10
2022-09-15T01:29:45.302Z,1.92
2022-09-15T01:33:04.755Z,2.47
2022-09-15T01:36:18.038Z,1.80
2022-09-15T01:39:30.245Z,1.98
2022-09-15T01:42:33.122Z,1.83
2022-09-15T01:45:38.832Z,2.10
2022-09-15T01:48:42.680Z,2.00
2022-09-15T01:51:46.448Z,1.80
2022-09-15T01:54:52.399Z,2.15
2022-09-15T01:57:53.726Z,2.40
2022-09-15T02:01:00.489Z,1.98
2022-09-15T02:04:11.871Z,2.25
2022-09-15T02:07:40.047Z,2.17
2022-09-15T02:10:55.048Z,2.67
2022-09-15T02:14:05.193Z,1.90
2022-09-15T02:17:15.243Z,2.03
2022-09-15T02:20:27.216Z,2.58
2022-09-15T02:23:35.017Z,1.88
2022-09-15T02:26:39.364Z,2.00
2022-09-15T02:29:44.579Z,2.03
2022-09-15T02:32:55.051Z,2.00
2022-09-15T02:35:56.412Z,2.20
2022-09-15T02:39:03.276Z,1.88
2022-09-15T02:42:04.964Z,2.03
2022-09-15T02:45:06.932Z,2.30
2022-09-15T02:48:08.653Z,1.70
2022-09-15T02:51:10.112Z,1.58
2022-09-15T02:54:11.452Z,2.10
2022-09-15T02:57:13.010Z,1.88
2022-09-15T03:00:15.869Z,2.08
2022-09-15T03:03:17.241Z,1.98
2022-09-15T03:06:18.558Z,1.60
2022-09-15T03:09:20.014Z,2.20
2022-09-15T03:12:21.341Z,1.67
2022-09-15T03:15:24.982Z,1.90
2022-09-15T03:18:26.293Z,1.92
2022-09-15T03:21:29.271Z,1.73
2022-09-15T03:24:30.626Z,1.80
2022-09-15T03:27:32.770Z,1.80
2022-09-15T03:30:34.114Z,1.88
2022-09-15T03:33:35.826Z,1.75
2022-09-15T03:36:37.206Z,1.95
2022-09-15T03:39:38.546Z,2.28
2022-09-15T03:42:40.040Z,2.10
2022-09-15T03:45:41.486Z,1.75
2022-09-15T03:48:42.863Z,1.40
2022-09-15T03:51:44.252Z,1.42
2022-09-15T03:54:45.574Z,1.55
2022-09-15T03:57:46.907Z,1.25
2022-09-15T04:00:48.263Z,1.42
2022-09-15T04:03:51.470Z,1.50
2022-09-15T04:06:53.046Z,1.40
2022-09-15T04:09:54.406Z,1.15
2022-09-15T04:12:55.908Z,2.00
2022-09-15T04:15:59.298Z,1.55
2022-09-15T04:19:00.707Z,1.77
2022-09-15T04:22:02.258Z,1.50
2022-09-15T04:25:04.035Z,1.60
2022-09-15T04:28:05.392Z,1.73
2022-09-15T04:31:12.598Z,1.77
2022-09-15T04:34:14.054Z,1.50
2022-09-15T04:37:15.373Z,1.40
2022-09-15T04:40:16.922Z,1.33
2022-09-15T04:43:18.457Z,1.00
2022-09-15T04:46:19.929Z,1.00
2022-09-15T04:49:21.316Z,1.88
2022-09-15T04:52:22.669Z,1.88
2022-09-15T04:55:24.078Z,1.13
2022-09-15T04:58:25.557Z,1.30
2022-09-15T05:01:29.346Z,1.17
2022-09-15T05:04:30.797Z,1.55
2022-09-15T05:07:32.149Z,2.42
2022-09-15T05:10:34.271Z,0.77
2022-09-15T05:13:36.635Z,0.80
2022-09-15T05:16:38.435Z,0.90
2022-09-15T05:19:39.878Z,1.58
2022-09-15T05:22:42.096Z,1.10
2022-09-15T05:25:43.539Z,1.30
2022-09-15T05:28:45.194Z,0.98
2022-09-15T05:31:46.656Z,1.38
2022-09-15T05:34:48.035Z,1.60
2022-09-15T05:37:49.511Z,1.20
2022-09-15T05:40:50.907Z,1.15
2022-09-15T05:43:54.067Z,1.48
2022-09-15T05:46:55.417Z,1.20
2022-09-15T05:49:56.823Z,1.30
2022-09-15T05:52:58.259Z,1.50
2022-09-15T05:56:01.888Z,1.15
2022-09-15T05:59:03.273Z,1.05
2022-09-15T06:02:05.324Z,1.23
2022-09-15T06:05:07.352Z,1.20
2022-09-15T06:08:08.804Z,1.55
2022-09-15T06:11:12.859Z,0.90
2022-09-15T06:14:14.348Z,0.98
2022-09-15T06:17:17.162Z,1.10
2022-09-15T06:20:18.699Z,1.00
2022-09-15T06:23:20.028Z,1.00
2022-09-15T06:26:21.429Z,1.45
2022-09-15T06:29:22.789Z,0.98
2022-09-15T06:32:24.376Z,2.00
2022-09-15T06:35:25.697Z,1.85
2022-09-15T06:38:27.032Z,1.38
2022-09-15T06:41:32.969Z,0.93
2022-09-15T06:44:49.549Z,1.65
2022-09-15T06:48:13.447Z,1.50
2022-09-15T06:51:14.310Z,1.77
2022-09-15T06:54:15.693Z,1.23
2022-09-15T06:57:17.029Z,0.88
2022-09-15T07:00:18.484Z,1.10
2022-09-15T07:03:19.927Z,0.98
2022-09-15T07:06:22.313Z,1.33
2022-09-15T07:09:23.653Z,1.00
2022-09-15T07:12:24.978Z,1.27
2022-09-15T07:15:26.307Z,1.33
2022-09-15T07:18:27.930Z,1.40
2022-09-15T07:21:29.284Z,1.00
2022-09-15T07:24:30.608Z,1.52
2022-09-15T07:27:32.035Z,1.65
2022-09-15T07:30:33.346Z,1.00
2022-09-15T07:33:36.027Z,1.48
2022-09-15T07:36:37.487Z,1.45
2022-09-15T07:39:38.805Z,1.60
2022-09-15T07:42:43.920Z,1.33
2022-09-15T07:45:45.879Z,1.50
2022-09-15T07:48:49.983Z,2.60
2022-09-15T07:51:51.319Z,1.63
2022-09-15T07:54:52.664Z,0.85
2022-09-15T07:58:00.912Z,1.27
2022-09-15T08:01:07.917Z,0.80
2022-09-15T08:04:09.320Z,1.23
2022-09-15T08:07:11.576Z,1.10
2022-09-15T08:10:12.953Z,1.10
2022-09-15T08:13:14.308Z,0.80
2022-09-15T08:16:21.460Z,1.23
2022-09-15T08:19:22.818Z,1.83
2022-09-15T08:22:24.224Z,1.00
2022-09-15T08:25:25.670Z,0.68
2022-09-15T08:28:27.449Z,0.90
2022-09-15T08:31:28.840Z,1.00
2022-09-15T08:34:30.380Z,0.98
2022-09-15T08:37:31.744Z,1.25
2022-09-15T08:40:37.303Z,1.45
2022-09-15T08:43:45.586Z,1.20
2022-09-15T08:47:05.418Z,1.00
2022-09-15T08:50:44.626Z,0.80
2022-09-15T08:53:53.457Z,0.75
2022-09-15T08:56:56.963Z,0.55
2022-09-15T08:59:59.173Z,0.90
2022-09-15T09:03:24.796Z,0.97
2022-09-15T09:06:52.037Z,1.00
2022-09-15T09:10:00.770Z,2.08
2022-09-15T09:13:23.706Z,1.20
2022-09-15T09:16:47.086Z,1.13
2022-09-15T09:20:12.341Z,1.13
2022-09-15T09:23:17.523Z,0.93
2022-09-15T09:26:19.611Z,1.13
2022-09-15T09:29:31.431Z,1.15
2022-09-15T09:32:46.462Z,1.10
2022-09-15T09:35:52.507Z,0.70
2022-09-15T09:38:55.771Z,0.80
2022-09-15T09:41:57.160Z,0.82
2022-09-15T09:44:58.520Z,0.80
2022-09-15T09:48:13.976Z,0.85
2022-09-15T09:51:35.401Z,1.13
2022-09-15T09:54:36.733Z,1.70
2022-09-15T09:57:40.721Z,1.20
2022-09-15T10:00:42.312Z,1.20
2022-09-15T10:03:43.928Z,0.90
2022-09-15T10:06:46.176Z,1.02
2022-09-15T10:09:51.004Z,1.30
2022-09-15T10:12:55.917Z,0.82
2022-09-15T10:16:00.845Z,0.70
2022-09-15T10:19:02.254Z,1.20
2022-09-15T10:22:04.578Z,0.90
2022-09-15T10:25:35.701Z,1.03
2022-09-15T10:29:10.221Z,0.90
2022-09-15T10:32:25.252Z,0.50
2022-09-15T10:35:32.549Z,0.90
2022-09-15T10:39:07.113Z,0.30
2022-09-15T10:42:35.634Z,0.60
2022-09-15T10:45:46.705Z,0.80
2022-09-15T10:49:06.746Z,0.77
2022-09-15T10:52:25.906Z,0.60
2022-09-15T10:55:52.776Z,0.95
2022-09-15T10:59:00.478Z,1.08
2022-09-15T11:02:23.270Z,0.40
2022-09-15T11:05:52.950Z,0.50
2022-09-15T11:09:12.622Z,0.50
2022-09-15T11:12:35.447Z,1.17
2022-09-15T11:15:48.615Z,0.47
2022-09-15T11:18:49.923Z,0.90
2022-09-15T11:21:59.039Z,0.77
2022-09-15T11:25:33.839Z,0.60
2022-09-15T11:28:47.554Z,0.60
2022-09-15T11:31:55.446Z,0.80
2022-09-15T11:35:26.538Z,1.08
2022-09-15T11:38:33.571Z,0.70
2022-09-15T11:41:40.055Z,0.52
2022-09-15T11:44:44.377Z,0.88
2022-09-15T11:47:55.337Z,1.20
2022-09-15T11:50:59.448Z,1.02
2022-09-15T11:54:18.126Z,0.93
2022-09-15T11:57:26.806Z,1.35
2022-09-15T12:00:28.152Z,0.70
2022-09-15T12:03:37.428Z,0.98
2022-09-15T12:07:07.920Z,0.63
2022-09-15T12:10:20.376Z,1.73
2022-09-15T12:13:24.071Z,0.80
2022-09-15T12:16:26.658Z,0.98
2022-09-15T12:20:01.452Z,1.02
2022-09-15T12:23:28.846Z,0.95
2022-09-15T12:26:33.022Z,1.05
2022-09-15T12:29:41.803Z,0.65
2022-09-15T12:32:43.893Z,1.02
2022-09-15T12:35:45.258Z,1.10
2022-09-15T12:38:49.672Z,0.77
2022-09-15T12:42:07.442Z,0.90
2022-09-15T12:45:28.378Z,0.70
2022-09-15T12:48:35.638Z,0.77
2022-09-15T12:51:37.055Z,0.60
2022-09-15T12:54:42.398Z,0.90
2022-09-15T12:57:51.344Z,0.90
2022-09-15T13:01:19.322Z,1.23
2022-09-15T13:04:42.806Z,1.33
2022-09-15T13:07:57.404Z,0.77
2022-09-15T13:11:09.165Z,1.23
2022-09-15T13:14:28.422Z,1.25
2022-09-15T13:17:30.764Z,1.83
2022-09-15T13:20:36.775Z,1.20
2022-09-15T13:23:40.972Z,1.38
2022-09-15T13:26:47.216Z,1.25
2022-09-15T13:29:54.888Z,0.75
2022-09-15T13:35:00.274Z,1.13
2022-09-15T13:40:56.319Z,0.73
2022-09-15T13:47:31.697Z,0.60
2022-09-15T13:50:38.956Z,0.82
2022-09-15T13:53:46.234Z,0.60
2022-09-15T13:56:47.766Z,0.60
2022-09-15T13:59:50.620Z,0.82
2022-09-15T14:02:56.314Z,1.27
2022-09-15T14:05:57.682Z,0.90
2022-09-15T14:09:09.214Z,1.20
2022-09-15T14:12:13.178Z,0.90
2022-09-15T14:15:22.813Z,1.08
2022-09-15T14:18:24.205Z,1.00
2022-09-15T14:21:31.294Z,1.00
2022-09-15T14:24:32.674Z,1.50
2022-09-15T14:27:35.509Z,1.35
2022-09-15T14:30:37.785Z,1.10
2022-09-15T14:33:40.660Z,0.93
2022-09-15T14:36:42.121Z,0.88
2022-09-15T14:39:50.236Z,0.88
2022-09-15T14:42:51.730Z,1.02
2022-09-15T14:45:57.672Z,0.60
2022-09-15T14:49:11.570Z,0.65
2022-09-15T14:52:25.986Z,0.50
2022-09-15T14:55:31.513Z,0.80
2022-09-15T14:58:44.912Z,1.05
2022-09-15T15:01:58.851Z,1.13
2022-09-15T15:05:14.675Z,0.88
2022-09-15T15:08:32.343Z,1.08
2022-09-15T15:11:36.419Z,1.20
2022-09-15T15:14:37.928Z,0.90
2022-09-15T15:17:42.416Z,1.10
2022-09-15T15:20:49.888Z,1.10
2022-09-15T15:23:51.213Z,1.10
2022-09-15T15:26:52.539Z,1.38
2022-09-15T15:29:53.884Z,1.52
2022-09-15T15:33:01.633Z,1.98
2022-09-15T15:36:08.836Z,2.38
2022-09-15T15:39:23.120Z,2.70
2022-09-15T15:42:25.641Z,2.10
2022-09-15T15:45:29.062Z,1.60
2022-09-15T15:48:36.860Z,1.40
2022-09-15T15:51:41.104Z,1.30
2022-09-15T15:57:44.833Z,1.55
2022-09-15T16:00:54.216Z,1.33
2022-09-15T16:03:55.585Z,0.98
2022-09-15T16:06:56.925Z,1.00
2022-09-15T16:09:59.990Z,1.20
2022-09-15T16:13:01.317Z,1.02
2022-09-15T16:16:13.768Z,1.02
2022-09-15T16:19:15.194Z,5.00
2022-09-15T16:22:20.798Z,1.85
2022-09-15T16:25:45.529Z,1.60
2022-09-15T16:28:46.898Z,1.00
2022-09-15T16:31:48.590Z,1.38
2022-09-15T16:34:49.986Z,1.38
2022-09-15T16:37:51.331Z,0.80
2022-09-15T16:40:52.688Z,0.85
2022-09-15T16:43:54.265Z,0.70
2022-09-15T16:46:55.666Z,1.30
2022-09-15T16:49:57.026Z,1.17
2022-09-15T16:52:58.721Z,0.80
2022-09-15T16:56:00.153Z,1.50
2022-09-15T16:59:01.607Z,0.80
2022-09-15T17:02:03.076Z,1.15
2022-09-15T17:05:18.447Z,0.88
2022-09-15T17:08:22.528Z,1.55
2022-09-15T17:11:25.607Z,0.98
2022-09-15T17:17:28.308Z,1.83
2022-09-15T17:20:29.735Z,1.00
2022-09-15T17:23:35.021Z,1.30
2022-09-15T17:26:36.360Z,1.27
2022-09-15T17:29:37.692Z,1.50
2022-09-15T17:32:39.356Z,1.10
2022-09-15T17:35:41.121Z,1.42
2022-09-15T17:38:42.759Z,1.48
2022-09-15T17:41:44.118Z,1.58
2022-09-15T17:44:45.453Z,9.45
2022-09-15T17:47:47.137Z,3.92
2022-09-15T17:50:49.157Z,5.28
2022-09-15T17:53:50.535Z,11.88
2022-09-15T17:56:51.869Z,6.40
2022-09-15T17:59:53.189Z,9.52
2022-09-15T18:02:57.220Z,8.70
2022-09-15T18:06:00.168Z,4.88
2022-09-15T18:09:01.499Z,2.38
2022-09-15T18:12:02.926Z,2.30
2022-09-15T18:15:04.650Z,3.38
2022-09-15T18:18:05.998Z,2.10
2022-09-15T18:21:09.671Z,1.80
2022-09-15T18:24:14.086Z,2.28
2022-09-15T18:27:15.406Z,6.22
2022-09-15T18:30:18.295Z,5.05
2022-09-15T18:33:24.747Z,5.75
2022-09-15T18:36:26.077Z,5.72
2022-09-15T18:39:27.408Z,8.82
2022-09-15T18:42:31.787Z,9.90
2022-09-15T18:45:33.444Z,8.93
2022-09-15T18:48:34.866Z,12.10
2022-09-15T18:51:51.227Z,6.32
2022-09-15T18:54:53.179Z,1.92
2022-09-15T18:57:56.853Z,2.33
2022-09-15T19:01:00.310Z,1.25
2022-09-15T19:04:02.021Z,1.50
2022-09-15T19:07:03.670Z,1.13
2022-09-15T19:10:06.998Z,1.63
2022-09-15T19:16:09.853Z,0.80
2022-09-15T19:19:11.236Z,4.45
2022-09-15T19:22:12.807Z,4.47
2022-09-15T19:25:14.153Z,1.50
2022-09-15T19:28:15.496Z,4.90
2022-09-15T19:31:16.841Z,2.55
2022-09-15T19:34:18.265Z,3.50
2022-09-15T19:37:21.433Z,2.53
2022-09-15T19:40:22.915Z,2.28
2022-09-15T19:43:24.314Z,2.03
2022-09-15T19:46:25.689Z,1.63
2022-09-15T19:49:27.157Z,3.03
2022-09-15T19:52:28.511Z,2.78
2022-09-15T19:55:29.865Z,1.80
2022-09-15T19:58:31.240Z,2.83
2022-09-15T20:01:33.154Z,2.53
2022-09-15T20:04:34.518Z,2.17
2022-09-15T20:07:35.950Z,1.95
2022-09-15T20:10:39.091Z,1.90
2022-09-15T20:13:43.349Z,2.30
2022-09-15T20:16:44.796Z,2.47
2022-09-15T20:19:46.207Z,2.40
2022-09-15T20:22:47.562Z,3.10
2022-09-15T20:25:59.799Z,2.28
2022-09-15T20:29:02.491Z,2.35
2022-09-15T20:32:03.971Z,1.23
2022-09-15T20:35:05.923Z,1.65
2022-09-15T20:38:07.231Z,1.45
2022-09-15T20:41:10.427Z,1.30
2022-09-15T20:44:12.051Z,1.20
2022-09-15T20:47:13.368Z,1.45
2022-09-15T20:50:14.728Z,1.48
2022-09-15T20:53:16.088Z,1.27
2022-09-15T20:56:18.594Z,1.70
2022-09-15T20:59:19.951Z,1.47
2022-09-15T21:02:21.342Z,1.33
2022-09-15T21:05:22.710Z,1.88
2022-09-15T21:08:24.054Z,2.90
2022-09-15T21:11:26.888Z,2.20
2022-09-15T21:14:28.232Z,1.15
2022-09-15T21:17:29.588Z,1.63
2022-09-15T21:20:30.940Z,2.05
2022-09-15T21:23:35.048Z,1.67
2022-09-15T21:26:39.054Z,1.80
2022-09-15T21:29:40.401Z,1.80
2022-09-15T21:32:41.725Z,2.00
2022-09-15T21:35:43.070Z,1.98
2022-09-15T21:38:44.616Z,1.92
2022-09-15T21:41:45.949Z,1.80
2022-09-15T21:44:47.345Z,2.95
2022-09-15T21:47:51.362Z,2.17
2022-09-15T21:50:53.996Z,1.80
2022-09-15T21:53:57.465Z,2.30
2022-09-15T21:56:58.811Z,1.80
2022-09-15T22:00:00.192Z,1.80
2022-09-15T22:03:01.766Z,1.73
2022-09-15T22:06:03.555Z,1.65
2022-09-15T22:09:08.505Z,2.40
2022-09-15T22:12:09.855Z,1.38
2022-09-15T22:15:11.183Z,1.42
2022-09-15T22:18:12.528Z,1.45
2022-09-15T22:21:17.966Z,1.73
2022-09-15T22:24:19.355Z,2.08
2022-09-15T22:27:20.719Z,1.85
2022-09-15T22:30:22.076Z,1.73
2022-09-15T22:33:23.431Z,1.40
2022-09-15T22:36:29.639Z,1.75
2022-09-15T22:39:50.552Z,1.42
2022-09-15T22:42:52.909Z,1.70
2022-09-15T22:45:54.336Z,1.50
2022-09-15T22:48:55.732Z,1.85
2022-09-15T22:51:57.120Z,1.98
2022-09-15T22:54:58.489Z,1.55
2022-09-15T22:57:59.853Z,1.42
2022-09-15T23:01:28.045Z,1.88
2022-09-15T23:04:32.348Z,1.92
2022-09-15T23:07:33.681Z,2.17
2022-09-15T23:10:35.018Z,1.50
2022-09-15T23:13:36.761Z,1.80
2022-09-15T23:16:38.155Z,2.17
2022-09-15T23:19:39.550Z,2.50
2022-09-15T23:22:40.881Z,2.08
2022-09-15T23:25:43.135Z,1.70
2022-09-15T23:28:44.527Z,1.63
2022-09-15T23:31:45.934Z,2.28
2022-09-15T23:34:47.330Z,1.80
2022-09-15T23:37:48.668Z,1.65
2022-09-15T23:40:50.127Z,2.15
2022-09-15T23:43:51.455Z,2.25
2022-09-15T23:46:52.834Z,1.33
2022-09-15T23:49:54.183Z,1.50
2022-09-15T23:52:55.535Z,1.75
2022-09-15T23:55:57.092Z,1.95
2022-09-15T23:58:58.449Z,1.70
